Time;durP1;ratioP1;P1;durP2;ratioP2;P2;SDS_P1;SDS_P2;PMS_P1;PMS_P2;Temp;Humidity;BMP_temperature;BMP_pressure;BME280_temperature;BME280_humidity;BME280_pressure;Samples;Min_cycle;Max_cycle;Signal;HPM_P1;HPM_P2
2023/06/03 00:00:28;;;;;;;12.80;4.00;;;;;;;13.55;100.00;99300.02;105799;1260;72554;-80
2023/06/03 00:02:56;;;;;;;9.30;3.70;;;;;;;13.53;100.00;99303.30;106643;1254;61679;-78
2023/06/03 00:05:27;;;;;;;9.10;3.10;;;;;;;13.50;100.00;99305.75;106625;1258;60470;-77
2023/06/03 00:07:54;;;;;;;6.90;3.90;;;;;;;13.51;100.00;99310.43;106487;1254;75903;-79
2023/06/03 00:10:22;;;;;;;8.40;3.60;;;;;;;13.54;100.00;99320.05;106030;1254;69365;-79
2023/06/03 00:12:49;;;;;;;7.00;3.20;;;;;;;13.59;100.00;99326.71;108479;1256;71876;-80
2023/06/03 00:15:18;;;;;;;13.20;4.60;;;;;;;13.61;100.00;99326.95;108658;1253;60532;-81
2023/06/03 00:17:47;;;;;;;13.90;4.00;;;;;;;13.59;100.00;99342.74;106472;1260;60316;-80
2023/06/03 00:20:18;;;;;;;8.20;3.60;;;;;;;13.56;100.00;99345.52;105866;1260;73777;-81
2023/06/03 00:22:51;;;;;;;9.70;3.50;;;;;;;13.55;100.00;99350.52;105656;1262;72149;-81
2023/06/03 00:25:24;;;;;;;13.80;3.60;;;;;;;13.57;100.00;99354.02;106001;1260;72992;-75
2023/06/03 00:27:53;;;;;;;11.00;4.30;;;;;;;13.60;100.00;99354.48;105998;1260;61242;-75
2023/06/03 00:30:20;;;;;;;10.90;4.10;;;;;;;13.63;100.00;99358.05;105804;1255;171869;-80
2023/06/03 00:34:31;;;;;;;10.50;3.70;;;;;;;13.68;100.00;99360.77;103212;1289;600796;-78
2023/06/03 00:36:59;;;;;;;12.90;3.60;;;;;;;13.67;100.00;99363.28;105925;1266;61867;-77
2023/06/03 00:39:27;;;;;;;8.10;3.30;;;;;;;13.71;100.00;99363.63;107982;1267;59298;-77
2023/06/03 00:41:57;;;;;;;8.80;3.70;;;;;;;13.74;100.00;99365.12;107271;1260;72232;-75
2023/06/03 00:44:25;;;;;;;7.70;3.30;;;;;;;13.76;100.00;99365.83;107767;1266;68732;-76
2023/06/03 00:46:52;;;;;;;6.00;3.70;;;;;;;13.78;100.00;99363.66;107206;1261;72845;-75
2023/06/03 00:49:20;;;;;;;7.90;3.30;;;;;;;13.80;100.00;99363.59;105706;1265;187807;-74
2023/06/03 00:51:47;;;;;;;9.40;4.20;;;;;;;13.80;100.00;99365.43;105513;1264;59148;-73
2023/06/03 00:54:15;;;;;;;8.40;3.40;;;;;;;13.81;100.00;99369.39;105431;1262;71008;-75
2023/06/03 00:56:43;;;;;;;8.30;3.00;;;;;;;13.83;100.00;99375.42;105338;1266;69307;-75
2023/06/03 00:59:13;;;;;;;8.30;3.90;;;;;;;13.82;100.00;99373.95;105540;1260;72681;-76
2023/06/03 01:01:42;;;;;;;7.80;3.10;;;;;;;13.78;100.00;99374.17;105551;1264;60423;-77
2023/06/03 01:04:10;;;;;;;10.30;3.40;;;;;;;13.69;98.20;99374.54;105646;1264;59724;-76
2023/06/03 01:06:45;;;;;;;6.90;3.20;;;;;;;13.58;97.43;99371.19;105658;1260;73159;-75
2023/06/03 01:09:51;;;;;;;6.40;3.00;;;;;;;13.48;97.44;99368.10;105653;1258;70187;-73
2023/06/03 01:12:27;;;;;;;8.10;2.90;;;;;;;13.42;97.64;99371.63;106336;1257;73198;-73
2023/06/03 01:14:57;;;;;;;6.20;2.80;;;;;;;13.40;97.07;99381.18;106856;1258;61818;-75
2023/06/03 01:17:27;;;;;;;6.70;3.00;;;;;;;13.37;96.57;99383.25;105756;1262;59978;-74
2023/06/03 01:19:56;;;;;;;8.10;2.50;;;;;;;13.37;96.58;99391.45;105806;1263;71864;-75
2023/06/03 01:22:26;;;;;;;5.90;2.80;;;;;;;13.37;96.31;99403.33;105734;1257;70115;-76
2023/06/03 01:25:06;;;;;;;5.10;2.90;;;;;;;13.39;96.62;99415.17;105539;1260;72695;-76
2023/06/03 01:27:36;;;;;;;5.10;3.10;;;;;;;13.38;95.63;99417.78;105543;1262;59719;-75
2023/06/03 01:30:06;;;;;;;6.30;3.30;;;;;;;13.31;94.81;99424.53;105574;1261;59529;-75
2023/06/03 01:32:35;;;;;;;6.80;3.00;;;;;;;13.22;94.18;99430.15;105710;1257;71898;-78
2023/06/03 01:35:06;;;;;;;3.90;2.80;;;;;;;13.15;93.97;99431.16;106675;1260;72493;-77
2023/06/03 01:37:34;;;;;;;7.30;3.30;;;;;;;13.13;94.35;99435.61;105946;1261;72692;-77
2023/06/03 01:40:02;;;;;;;7.30;3.40;;;;;;;13.16;94.35;99434.98;105651;1262;59628;-76
2023/06/03 01:42:32;;;;;;;4.80;3.20;;;;;;;13.17;94.03;99442.55;105923;1264;61101;-78
2023/06/03 01:45:01;;;;;;;5.80;3.20;;;;;;;13.17;93.88;99445.27;108183;1258;71893;-78
2023/06/03 01:47:28;;;;;;;8.40;3.60;;;;;;;13.19;93.38;99445.92;106265;1258;70423;-78
2023/06/03 01:49:56;;;;;;;6.50;3.20;;;;;;;13.20;92.76;99446.38;106073;1261;72513;-75
2023/06/03 01:52:26;;;;;;;5.90;3.90;;;;;;;13.16;92.60;99452.14;106836;1265;59745;-78
2023/06/03 01:54:54;;;;;;;8.90;3.60;;;;;;;13.16;92.66;99462.77;106007;1260;61286;-77
2023/06/03 01:57:22;;;;;;;4.90;3.70;;;;;;;13.16;92.63;99472.57;106016;1258;71295;-77
2023/06/03 01:59:52;;;;;;;6.80;3.40;;;;;;;13.16;92.38;99472.02;106592;1257;70305;-77
2023/06/03 02:02:19;;;;;;;9.30;3.20;;;;;;;13.15;91.91;99472.96;107727;1257;72929;-76
2023/06/03 02:04:48;;;;;;;6.00;3.00;;;;;;;13.13;91.61;99486.98;106958;1257;59665;-76
2023/06/03 02:07:17;;;;;;;3.10;2.80;;;;;;;13.11;91.17;99492.25;106406;1264;60047;-78
2023/06/03 02:09:47;;;;;;;6.10;3.60;;;;;;;13.02;89.59;99499.25;106045;1260;73181;-77
2023/06/03 02:12:15;;;;;;;3.60;2.80;;;;;;;12.88;90.05;99503.52;106589;1254;68941;-78
2023/06/03 02:14:43;;;;;;;6.20;3.00;;;;;;;12.74;88.94;99506.03;107100;1254;72049;-75
2023/06/03 02:17:11;;;;;;;5.70;3.30;;;;;;;12.60;89.34;99507.45;106920;1254;60445;-77
2023/06/03 02:19:40;;;;;;;3.50;2.80;;;;;;;12.53;90.39;99512.66;106431;1254;59790;-77
2023/06/03 02:22:07;;;;;;;3.30;2.60;;;;;;;12.52;90.31;99512.82;106773;1254;71945;-78
2023/06/03 02:24:38;;;;;;;4.90;2.70;;;;;;;12.49;89.72;99520.52;107933;1254;69903;-77
2023/06/03 02:27:07;;;;;;;6.20;2.80;;;;;;;12.39;89.23;99528.77;106953;1254;71354;-75
2023/06/03 02:29:36;;;;;;;6.50;2.20;;;;;;;12.33;89.30;99531.36;107000;1254;59602;-77
2023/06/03 02:32:04;;;;;;;2.80;2.30;;;;;;;12.30;89.70;99533.63;108295;1253;59220;-78
2023/06/03 02:34:32;;;;;;;5.50;2.80;;;;;;;12.29;89.54;99543.83;107657;1254;71830;-78
2023/06/03 02:36:59;;;;;;;2.90;2.40;;;;;;;12.31;89.92;99547.10;106235;1254;68900;-78
2023/06/03 02:39:27;;;;;;;4.30;2.50;;;;;;;12.32;89.90;99560.20;105776;1259;70830;-79
2023/06/03 02:41:55;;;;;;;6.20;2.90;;;;;;;12.30;89.62;99565.91;105777;1254;60280;-79
2023/06/03 02:44:22;;;;;;;2.70;2.40;;;;;;;12.28;88.98;99576.80;107046;1253;59558;-82
2023/06/03 02:46:50;;;;;;;3.30;2.50;;;;;;;12.23;87.90;99575.02;108319;1254;72022;-80
2023/06/03 02:49:18;;;;;;;6.30;2.90;;;;;;;12.14;86.98;99569.16;106323;1257;68744;-79
2023/06/03 02:51:46;;;;;;;4.80;2.10;;;;;;;12.02;86.48;99565.98;105631;1259;72655;-81
2023/06/03 02:54:13;;;;;;;3.60;2.40;;;;;;;11.92;86.93;99568.45;105787;1257;59548;-79
2023/06/03 02:56:41;;;;;;;4.30;2.80;;;;;;;11.82;87.47;99575.66;106019;1256;59625;-76
2023/06/03 02:59:08;;;;;;;5.10;2.00;;;;;;;11.79;87.73;99575.02;106892;1254;71463;-76
2023/06/03 03:01:37;;;;;;;5.20;2.00;;;;;;;11.81;87.67;99579.59;105753;1262;69355;-77
2023/06/03 03:04:04;;;;;;;5.50;2.50;;;;;;;11.82;87.50;99584.89;105754;1254;71611;-77
2023/06/03 03:06:36;;;;;;;3.00;2.20;;;;;;;11.80;87.37;99601.02;105786;1254;62125;-77
2023/06/03 03:09:04;;;;;;;3.40;2.00;;;;;;;11.77;86.82;99604.62;105930;1254;59999;-78
2023/06/03 03:11:35;;;;;;;2.30;1.60;;;;;;;11.73;86.99;99610.14;105863;1254;71756;-78
2023/06/03 03:14:03;;;;;;;3.60;1.90;;;;;;;11.69;86.93;99620.98;105874;1259;68748;-80
2023/06/03 03:16:33;;;;;;;2.60;1.70;;;;;;;11.71;87.10;99624.49;107531;1252;71410;-79
2023/06/03 03:19:01;;;;;;;3.40;1.70;;;;;;;11.76;86.70;99626.48;106458;1254;60045;-80
2023/06/03 03:21:29;;;;;;;4.20;2.10;;;;;;;11.75;85.80;99632.84;106265;1254;60867;-75
2023/06/03 03:23:58;;;;;;;2.50;1.60;;;;;;;11.66;85.13;99638.90;106066;1253;70979;-77
2023/06/03 03:26:27;;;;;;;2.50;1.70;;;;;;;11.58;84.54;99646.54;105893;1254;68540;-78
2023/06/03 03:28:55;;;;;;;3.10;2.20;;;;;;;11.50;84.29;99648.65;105756;1260;71462;-75
2023/06/03 03:31:23;;;;;;;2.30;1.50;;;;;;;11.40;84.53;99659.55;106464;1257;59739;-75
2023/06/03 03:33:51;;;;;;;2.80;2.00;;;;;;;11.35;84.43;99663.54;106944;1256;62088;-78
2023/06/03 03:36:22;;;;;;;5.30;1.70;;;;;;;11.32;84.89;99660.80;105911;1254;71754;-76
2023/06/03 03:39:06;;;;;;;2.20;1.60;;;;;;;11.31;84.80;99661.89;105811;1256;71463;-75
2023/06/03 03:41:42;;;;;;;5.40;2.30;;;;;;;11.24;84.62;99664.63;105833;1254;71461;-77
2023/06/03 03:44:10;;;;;;;1.70;1.30;;;;;;;11.21;84.92;99673.25;105908;1257;60843;-77
2023/06/03 03:46:51;;;;;;;3.70;2.10;;;;;;;11.17;84.82;99679.65;108151;1255;60272;-77
2023/06/03 03:49:26;;;;;;;4.10;2.20;;;;;;;11.19;84.92;99684.42;107212;1260;73493;-79
2023/06/03 03:51:56;;;;;;;3.70;1.90;;;;;;;11.26;85.06;99687.05;105789;1257;68998;-77
2023/06/03 03:54:24;;;;;;;5.50;2.00;;;;;;;11.29;84.45;99683.35;105754;1253;72707;-78
2023/06/03 03:56:54;;;;;;;3.50;1.60;;;;;;;11.27;83.27;99691.37;106074;1254;59938;-76
2023/06/03 03:59:22;;;;;;;1.90;1.70;;;;;;;11.18;83.82;99695.80;105778;1259;59486;-77
2023/06/03 04:01:50;;;;;;;3.10;1.70;;;;;;;11.15;84.58;99697.14;106008;1254;73845;-76
2023/06/03 04:04:50;;;;;;;3.70;1.70;;;;;;;11.17;83.99;99696.24;106728;1259;69541;-76
2023/06/03 04:07:17;;;;;;;1.90;1.50;;;;;;;11.20;83.86;99699.35;105797;1257;72602;-75
2023/06/03 04:09:46;;;;;;;3.80;1.60;;;;;;;11.21;83.91;99701.27;105864;1254;59714;-74
2023/06/03 04:12:32;;;;;;;5.70;1.50;;;;;;;11.26;83.25;99700.76;105717;1254;59722;-75
2023/06/03 04:15:01;;;;;;;3.10;1.60;;;;;;;11.20;83.53;99703.16;106360;1252;73087;-75
2023/06/03 04:17:32;;;;;;;5.20;1.80;;;;;;;11.17;83.37;99703.82;108867;1254;69041;-73
2023/06/03 04:20:01;;;;;;;1.90;1.60;;;;;;;11.20;83.03;99705.73;105830;1255;71463;-75
2023/06/03 04:22:29;;;;;;;6.20;1.70;;;;;;;11.20;83.47;99704.77;105806;1257;59589;-74
2023/06/03 04:24:58;;;;;;;6.20;2.00;;;;;;;11.22;83.32;99704.19;105509;1254;59618;-75
2023/06/03 04:27:40;;;;;;;1.70;1.30;;;;;;;11.28;82.92;99710.21;105831;1253;71848;-75
2023/06/03 04:30:09;;;;;;;2.30;1.20;;;;;;;11.22;81.43;99711.94;105811;1259;70210;-74
2023/06/03 04:32:37;;;;;;;4.70;1.50;;;;;;;11.15;81.65;99716.95;105994;1257;70426;-75
2023/06/03 04:35:04;;;;;;;3.60;1.80;;;;;;;11.08;80.79;99728.61;105869;1260;59755;-75
2023/06/03 04:37:34;;;;;;;2.30;1.20;;;;;;;11.00;80.56;99731.27;106020;1259;59588;-72
2023/06/03 04:40:04;;;;;;;2.20;2.00;;;;;;;10.97;81.47;99734.99;105483;1254;72132;-71
2023/06/03 04:42:33;;;;;;;2.80;1.60;;;;;;;10.95;81.34;99738.23;105932;1253;69549;-74
2023/06/03 04:45:01;;;;;;;3.20;1.90;;;;;;;10.91;81.75;99745.03;105931;1254;74808;-74
2023/06/03 04:47:34;;;;;;;2.70;1.80;;;;;;;10.92;82.03;99744.58;107937;1253;61004;-75
2023/06/03 04:50:04;;;;;;;2.40;1.80;;;;;;;11.00;82.18;99750.27;108612;1253;59978;-75
2023/06/03 04:52:32;;;;;;;3.20;2.00;;;;;;;11.05;82.33;99751.85;108336;1253;72638;-76
2023/06/03 04:55:00;;;;;;;4.10;1.50;;;;;;;11.12;82.05;99754.02;105833;1254;70004;-76
2023/06/03 04:57:28;;;;;;;2.50;1.90;;;;;;;11.23;81.82;99758.80;105761;1257;72710;-75
2023/06/03 04:59:57;;;;;;;3.50;1.70;;;;;;;11.26;81.16;99764.91;105850;1253;60504;-76
2023/06/03 05:02:29;;;;;;;2.60;1.50;;;;;;;11.27;80.05;99772.54;105855;1259;60359;-77
2023/06/03 05:04:58;;;;;;;3.80;1.50;;;;;;;11.31;79.19;99774.98;105815;1254;72775;-76
2023/06/03 05:07:26;;;;;;;2.30;1.60;;;;;;;11.30;79.53;99777.59;106022;1254;70156;-74
2023/06/03 05:09:54;;;;;;;3.20;2.20;;;;;;;11.32;78.14;99788.87;106192;1258;72899;-73
2023/06/03 05:12:23;;;;;;;4.70;1.40;;;;;;;11.38;78.63;99794.52;105958;1253;60422;-75
2023/06/03 05:14:51;;;;;;;3.50;1.60;;;;;;;11.45;78.97;99798.55;105722;1254;60371;-74
2023/06/03 05:17:18;;;;;;;3.90;1.70;;;;;;;11.51;78.68;99806.37;108623;1254;73861;-74
2023/06/03 05:19:46;;;;;;;3.90;1.50;;;;;;;11.59;77.35;99805.44;106533;1254;68708;-74
2023/06/03 05:22:13;;;;;;;2.80;1.30;;;;;;;11.65;77.02;99815.16;105727;1256;72827;-76
2023/06/03 05:24:41;;;;;;;5.20;1.90;;;;;;;11.69;75.77;99814.38;105740;1256;60476;-75
2023/06/03 05:27:09;;;;;;;4.50;2.00;;;;;;;11.76;75.99;99810.88;105724;1258;60526;-72
2023/06/03 05:29:37;;;;;;;2.40;1.60;;;;;;;11.82;76.03;99821.02;105741;1254;72653;-74
2023/06/03 05:32:05;;;;;;;2.20;1.70;;;;;;;11.90;75.75;99822.94;105629;1255;70037;-73
2023/06/03 05:34:34;;;;;;;2.10;1.40;;;;;;;11.99;75.27;99826.20;105631;1254;72922;-73
2023/06/03 05:37:02;;;;;;;3.20;1.50;;;;;;;12.02;74.45;99831.29;105570;1256;60604;-74
2023/06/03 05:39:30;;;;;;;3.00;1.60;;;;;;;12.05;74.20;99840.44;106350;1253;60391;-74
2023/06/03 05:41:59;;;;;;;2.10;1.60;;;;;;;12.11;73.92;99840.97;106304;1254;73133;-75
2023/06/03 05:44:27;;;;;;;2.70;1.40;;;;;;;12.15;73.50;99843.30;105910;1260;68150;-75
2023/06/03 05:46:55;;;;;;;4.10;1.50;;;;;;;12.17;73.09;99845.60;107790;1256;71780;-74
2023/06/03 05:49:23;;;;;;;3.90;1.90;;;;;;;12.27;71.68;99856.21;107640;1256;60467;-76
2023/06/03 05:51:51;;;;;;;2.10;1.60;;;;;;;12.30;71.66;99858.96;106243;1252;60394;-77
2023/06/03 05:54:18;;;;;;;2.40;1.30;;;;;;;12.34;70.93;99862.18;106020;1257;73879;-76
2023/06/03 05:56:46;;;;;;;5.60;1.90;;;;;;;12.41;69.43;99863.32;105886;1253;69333;-76
2023/06/03 05:59:13;;;;;;;3.50;1.60;;;;;;;12.36;69.18;99864.98;105633;1253;72317;-77
2023/06/03 06:01:43;;;;;;;2.30;1.70;;;;;;;12.29;69.28;99864.00;106065;1253;60473;-77
2023/06/03 06:04:11;;;;;;;1.70;1.20;;;;;;;12.34;69.53;99868.16;105813;1254;60829;-76
2023/06/03 06:06:39;;;;;;;2.90;1.90;;;;;;;12.41;70.29;99874.73;105837;1254;73971;-76
2023/06/03 06:09:07;;;;;;;2.60;1.60;;;;;;;12.53;70.95;99874.80;105670;1261;69059;-80
2023/06/03 06:11:35;;;;;;;2.40;1.20;;;;;;;12.63;71.48;99875.39;106011;1257;71538;-74
2023/06/03 06:14:02;;;;;;;3.50;1.40;;;;;;;12.62;68.87;99876.69;106235;1260;59771;-78
2023/06/03 06:16:30;;;;;;;3.10;1.70;;;;;;;12.63;66.62;99881.20;107500;1253;61301;-80
2023/06/03 06:18:58;;;;;;;3.10;1.40;;;;;;;12.64;66.76;99879.27;108522;1260;73974;-78
2023/06/03 06:21:27;;;;;;;2.10;1.40;;;;;;;12.72;66.60;99883.02;108334;1254;68862;-80
2023/06/03 06:23:55;;;;;;;3.10;1.30;;;;;;;12.73;66.38;99889.80;105902;1253;71496;-81
2023/06/03 06:26:25;;;;;;;3.50;1.40;;;;;;;12.71;64.81;99882.29;106382;1254;60473;-80
2023/06/03 06:28:54;;;;;;;3.10;1.50;;;;;;;12.75;63.94;99885.33;106474;1254;60337;-80
2023/06/03 06:31:22;;;;;;;2.00;1.40;;;;;;;12.80;63.18;99884.18;106048;1259;73810;-80
2023/06/03 06:33:52;;;;;;;2.20;1.40;;;;;;;12.77;63.23;99887.34;106037;1253;69345;-78
2023/06/03 06:36:32;;;;;;;4.80;1.50;;;;;;;12.72;62.63;99888.27;107136;1254;71741;-80
2023/06/03 06:39:05;;;;;;;2.50;1.10;;;;;;;12.74;62.63;99893.48;108119;1253;60495;-80
2023/06/03 06:41:36;;;;;;;2.10;1.40;;;;;;;12.80;62.64;99894.52;106975;1259;60445;-80
2023/06/03 06:44:04;;;;;;;5.60;1.50;;;;;;;12.87;61.92;99899.05;107290;1253;74080;-77
2023/06/03 06:46:32;;;;;;;3.80;1.30;;;;;;;12.94;61.75;99907.30;108201;1253;68739;-78
2023/06/03 06:48:59;;;;;;;2.60;1.20;;;;;;;13.04;61.34;99908.86;109047;1252;70215;-79
2023/06/03 06:51:33;;;;;;;2.40;1.60;;;;;;;13.10;61.05;99914.54;108402;1253;60636;-78
2023/06/03 06:54:01;;;;;;;3.40;1.10;;;;;;;13.16;61.25;99915.02;107688;1254;60084;-77
2023/06/03 06:56:29;;;;;;;3.70;1.10;;;;;;;13.23;60.73;99911.05;107528;1254;72568;-78
2023/06/03 06:58:59;;;;;;;2.00;1.20;;;;;;;13.28;59.40;99914.38;106752;1254;71932;-79
2023/06/03 07:01:27;;;;;;;3.80;1.20;;;;;;;13.28;58.22;99920.90;106036;1253;71507;-79
2023/06/03 07:03:55;;;;;;;2.00;1.10;;;;;;;13.26;57.47;99922.27;106071;1254;60763;-77
2023/06/03 07:06:23;;;;;;;2.30;1.30;;;;;;;13.25;58.22;99922.52;105781;1253;60455;-79
2023/06/03 07:08:57;;;;;;;2.40;1.00;;;;;;;13.32;58.42;99923.98;105850;1256;72614;-79
2023/06/03 07:11:26;;;;;;;3.90;1.40;;;;;;;13.47;59.58;99918.92;105863;1258;70196;-78
2023/06/03 07:13:59;;;;;;;;;;;;;;;13.52;58.60;99926.40;105958;1254;73508;-78
2023/06/03 07:16:26;;;;;;;3.90;1.10;;;;;;;13.50;57.44;99930.79;107538;1254;60379;-77
2023/06/03 07:18:54;;;;;;;2.80;1.00;;;;;;;13.48;57.78;99926.39;107908;1253;60971;-79
2023/06/03 07:21:48;;;;;;;3.30;1.20;;;;;;;13.49;57.75;99937.02;106411;1254;72865;-79
2023/06/03 07:24:16;;;;;;;2.50;1.40;;;;;;;13.54;57.37;99943.07;105806;1254;69184;-79
2023/06/03 07:26:47;;;;;;;4.00;1.20;;;;;;;13.59;56.08;99940.77;105858;1254;71469;-78
2023/06/03 07:29:15;;;;;;;1.20;1.10;;;;;;;13.58;56.30;99939.09;105897;1258;60712;-78
2023/06/03 07:31:43;;;;;;;3.20;1.30;;;;;;;13.61;57.04;99938.21;105967;1254;60405;-78
2023/06/03 07:34:11;;;;;;;4.20;1.20;;;;;;;13.63;55.54;99945.51;105873;1253;73004;-78
2023/06/03 07:36:41;;;;;;;4.50;1.30;;;;;;;13.60;54.96;99937.63;105854;1254;71192;-77
2023/06/03 07:39:09;;;;;;;3.00;1.10;;;;;;;13.56;53.27;99941.61;106072;1254;71436;-77
2023/06/03 07:41:38;;;;;;;6.00;1.20;;;;;;;13.50;53.18;99952.70;105986;1254;60999;-75
2023/06/03 07:44:13;;;;;;;3.60;1.00;;;;;;;13.47;54.66;99948.28;106105;1258;60351;-77
2023/06/03 07:46:44;;;;;;;1.00;0.90;;;;;;;13.53;55.06;99945.42;109087;1253;72714;-77
2023/06/03 07:49:15;;;;;;;4.00;1.90;;;;;;;13.64;54.39;99958.73;107708;1259;68723;-79
2023/06/03 07:51:47;;;;;;;1.50;1.20;;;;;;;13.72;54.14;99962.54;106916;1256;71615;-73
2023/06/03 07:54:15;;;;;;;2.30;1.00;;;;;;;13.79;54.02;99961.86;106061;1254;60540;-75
2023/06/03 07:56:43;;;;;;;4.70;1.10;;;;;;;13.84;53.46;99958.30;105952;1252;60578;-74
2023/06/03 07:59:14;;;;;;;2.20;1.00;;;;;;;13.90;53.69;99960.00;105796;1259;73960;-74
2023/06/03 08:01:47;;;;;;;3.60;1.40;;;;;;;14.02;53.91;99961.17;105830;1259;68685;-76
2023/06/03 08:04:34;;;;;;;3.00;1.20;;;;;;;14.12;53.45;99963.63;105613;1253;72648;-76
2023/06/03 08:07:06;;;;;;;1.70;1.10;;;;;;;14.24;53.20;99967.38;106068;1253;60450;-76
2023/06/03 08:09:43;;;;;;;4.80;1.20;;;;;;;14.37;53.00;99965.98;106137;1253;60949;-77
2023/06/03 08:12:14;;;;;;;1.90;1.40;;;;;;;14.44;51.53;99976.97;106044;1253;76136;-76
2023/06/03 08:14:43;;;;;;;2.10;1.10;;;;;;;14.46;51.71;99980.23;106245;1254;69288;-75
2023/06/03 08:17:17;;;;;;;5.10;1.40;;;;;;;14.49;52.60;99984.83;108460;1254;71830;-73
2023/06/03 08:19:45;;;;;;;1.60;1.30;;;;;;;14.56;52.34;99982.73;106358;1254;60556;-76
2023/06/03 08:22:28;;;;;;;2.60;1.10;;;;;;;14.62;51.54;99993.23;105970;1254;60492;-78
2023/06/03 08:24:56;;;;;;;4.60;1.20;;;;;;;14.68;51.56;99988.73;105758;1254;76216;-76
2023/06/03 08:27:24;;;;;;;3.70;1.30;;;;;;;14.75;50.97;99993.17;105644;1261;71497;-75
2023/06/03 08:29:52;;;;;;;1.80;1.20;;;;;;;14.81;50.95;99997.48;105629;1260;71480;-76
2023/06/03 08:32:22;;;;;;;1.70;1.00;;;;;;;14.89;51.10;99991.19;105529;1254;60539;-76
2023/06/03 08:34:50;;;;;;;3.10;1.20;;;;;;;14.97;50.90;99994.14;105693;1253;60367;-76
2023/06/03 08:37:18;;;;;;;2.30;1.00;;;;;;;15.03;50.71;99999.92;105723;1253;73899;-74
2023/06/03 08:39:47;;;;;;;4.60;1.20;;;;;;;15.10;49.89;99999.42;106324;1252;70029;-75
2023/06/03 08:42:19;;;;;;;3.60;1.40;;;;;;;15.16;50.53;100000.26;106127;1254;72765;-75
2023/06/03 08:45:03;;;;;;;1.60;1.20;;;;;;;15.28;50.68;100010.70;107024;1260;60412;-75
2023/06/03 08:47:56;;;;;;;3.20;1.00;;;;;;;15.44;50.45;100006.09;107156;1254;60530;-75
2023/06/03 08:50:24;;;;;;;4.40;1.40;;;;;;;15.58;48.95;100005.60;107251;1253;73815;-74
2023/06/03 08:52:53;;;;;;;1.00;1.00;;;;;;;15.67;48.54;100005.41;106325;1253;70793;-75
2023/06/03 08:55:21;;;;;;;1.20;1.10;;;;;;;15.80;48.93;99994.25;106736;1254;72581;-76
2023/06/03 08:57:53;;;;;;;2.30;1.20;;;;;;;15.96;48.39;99994.72;106832;1254;60544;-74
2023/06/03 09:00:23;;;;;;;3.40;1.40;;;;;;;16.10;46.96;99991.34;107107;1252;60572;-75
2023/06/03 09:02:55;;;;;;;3.70;1.10;;;;;;;16.20;46.61;99986.44;106526;1254;72716;-74
2023/06/03 09:05:23;;;;;;;3.30;1.10;;;;;;;16.31;46.58;99988.17;105767;1253;70341;-75
2023/06/03 09:07:50;;;;;;;2.30;1.00;;;;;;;16.42;46.09;99991.98;105940;1255;72627;-74
2023/06/03 09:10:21;;;;;;;3.00;1.20;;;;;;;16.56;46.32;99994.14;106234;1253;60582;-76
2023/06/03 09:12:48;;;;;;;2.00;1.10;;;;;;;16.72;45.50;99995.97;106647;1254;61925;-75
2023/06/03 09:15:16;;;;;;;4.00;1.10;;;;;;;16.89;44.71;99995.90;106058;1253;72751;-74
2023/06/03 09:17:44;;;;;;;1.50;1.10;;;;;;;17.11;44.62;99999.41;106992;1253;70281;-74
2023/06/03 09:20:12;;;;;;;1.80;1.10;;;;;;;17.44;45.34;100009.42;108460;1259;73738;-75
2023/06/03 09:22:44;;;;;;;3.40;1.40;;;;;;;17.93;43.78;100001.96;106279;1254;61535;-74
2023/06/03 09:25:12;;;;;;;3.20;1.00;;;;;;;18.44;42.07;100001.58;105987;1256;60333;-75
2023/06/03 09:27:40;;;;;;;1.10;1.00;;;;;;;18.92;41.75;100002.64;106175;1253;73880;-76
2023/06/03 09:30:08;;;;;;;1.70;1.00;;;;;;;19.44;41.67;100014.09;105832;1261;70313;-75
2023/06/03 09:32:37;;;;;;;2.70;1.40;;;;;;;20.01;41.92;100014.92;106104;1260;71498;-76
2023/06/03 09:35:07;;;;;;;2.20;1.50;;;;;;;20.63;39.74;100009.86;106201;1254;61627;-76
2023/06/03 09:37:34;;;;;;;2.10;1.30;;;;;;;21.17;39.81;100003.91;105979;1259;60327;-76
2023/06/03 09:40:09;;;;;;;2.00;1.30;;;;;;;21.71;39.31;99999.89;105681;1253;72663;-74
2023/06/03 09:42:43;;;;;;;1.20;1.10;;;;;;;22.15;37.47;99996.46;105823;1254;70254;-76
2023/06/03 09:45:23;;;;;;;3.70;1.50;;;;;;;22.49;36.07;100005.86;105961;1254;71526;-77
2023/06/03 09:47:50;;;;;;;3.20;1.90;;;;;;;22.72;35.28;100011.02;106537;1259;60291;-75
2023/06/03 09:50:18;;;;;;;3.80;1.60;;;;;;;22.95;35.24;100010.20;107647;1253;59258;-77
2023/06/03 09:52:45;;;;;;;2.00;1.30;;;;;;;23.22;35.70;100015.80;106295;1254;72895;-77
2023/06/03 09:55:14;;;;;;;1.60;1.50;;;;;;;23.56;35.40;100024.64;106232;1252;72818;-75
2023/06/03 09:57:42;;;;;;;2.30;1.40;;;;;;;24.04;34.45;100020.60;106567;1254;71434;-77
2023/06/03 10:00:11;;;;;;;1.70;1.40;;;;;;;24.61;33.85;100017.17;106476;1254;60536;-76
2023/06/03 10:02:40;;;;;;;2.80;1.40;;;;;;;25.07;32.29;100008.77;105990;1253;60518;-78
2023/06/03 10:05:27;;;;;;;2.80;1.50;;;;;;;25.33;32.13;100012.96;105918;1259;72676;-78
2023/06/03 10:07:55;;;;;;;1.90;1.20;;;;;;;25.67;31.09;100012.13;105892;1254;70476;-77
2023/06/03 10:10:25;;;;;;;2.00;1.10;;;;;;;25.93;31.11;100010.41;106077;1254;73565;-78
2023/06/03 10:12:52;;;;;;;2.70;1.40;;;;;;;26.17;31.01;100012.78;106165;1254;60449;-78
2023/06/03 10:15:33;;;;;;;2.70;1.50;;;;;;;26.34;30.02;100009.73;105871;1254;61657;-77
2023/06/03 10:18:00;;;;;;;2.80;1.40;;;;;;;26.41;29.27;100026.06;108128;1253;75533;-76
2023/06/03 10:20:38;;;;;;;1.40;1.20;;;;;;;26.38;29.97;100026.27;107885;1254;69110;-77
2023/06/03 10:23:07;;;;;;;2.40;1.60;;;;;;;26.46;30.34;100024.23;106554;1258;73278;-75
2023/06/03 10:25:46;;;;;;;2.40;1.60;;;;;;;26.73;29.54;100022.60;106489;1253;60485;-76
2023/06/03 10:28:14;;;;;;;1.70;1.30;;;;;;;26.91;29.92;100016.48;106090;1257;60367;-75
2023/06/03 10:30:42;;;;;;;2.70;1.70;;;;;;;27.13;29.63;100020.98;105665;1253;73919;-76
2023/06/03 10:33:09;;;;;;;3.00;1.40;;;;;;;27.37;29.39;100014.36;105805;1259;68833;-75
2023/06/03 10:35:38;;;;;;;1.70;1.20;;;;;;;27.52;28.87;100024.30;105858;1254;73084;-78
2023/06/03 10:38:06;;;;;;;1.60;1.50;;;;;;;27.61;28.23;100012.77;105790;1258;60552;-77
2023/06/03 10:40:34;;;;;;;1.50;1.40;;;;;;;27.69;27.45;100030.50;105874;1254;60481;-77
2023/06/03 10:43:02;;;;;;;3.00;1.70;;;;;;;27.74;28.12;100031.48;105922;1253;72843;-77
2023/06/03 10:45:30;;;;;;;2.60;1.80;;;;;;;27.84;27.84;100034.14;105912;1259;69517;-76
2023/06/03 10:48:05;;;;;;;3.30;1.50;;;;;;;28.05;27.97;100033.63;106978;1253;71381;-76
2023/06/03 10:51:11;;;;;;;3.40;1.60;;;;;;;28.24;27.65;100026.64;107530;1253;60535;-76
2023/06/03 10:54:12;;;;;;;1.40;1.30;;;;;;;28.59;27.38;100032.90;105914;1254;60502;-73
2023/06/03 10:56:49;;;;;;;3.60;1.30;;;;;;;28.97;27.03;100030.27;105563;1254;74713;-76
2023/06/03 10:59:17;;;;;;;6.50;1.30;;;;;;;29.22;26.63;100031.79;106013;1254;70339;-73
2023/06/03 11:02:03;;;;;;;1.60;1.40;;;;;;;29.39;26.07;100031.42;106101;1254;72875;-73
2023/06/03 11:04:35;;;;;;;1.90;1.50;;;;;;;29.55;26.37;100036.87;105716;1256;60486;-75
2023/06/03 11:07:04;;;;;;;4.30;1.30;;;;;;;29.69;26.33;100030.98;106737;1254;60487;-75
2023/06/03 11:09:39;;;;;;;4.50;1.40;;;;;;;29.51;26.59;100040.42;106578;1259;73948;-75
2023/06/03 11:12:13;;;;;;;1.90;1.20;;;;;;;29.34;26.66;100044.48;105610;1259;70561;-76
2023/06/03 11:14:41;;;;;;;3.30;1.40;;;;;;;29.29;26.72;100040.23;106077;1253;72245;-75
2023/06/03 11:17:11;;;;;;;1.40;1.30;;;;;;;29.38;26.51;100044.13;105872;1254;60568;-75
2023/06/03 11:19:44;;;;;;;1.70;1.40;;;;;;;29.62;25.82;100048.58;108249;1253;60284;-76
2023/06/03 11:22:34;;;;;;;1.50;1.30;;;;;;;29.93;25.81;100043.92;106892;1254;72541;-75
2023/06/03 11:25:05;;;;;;;3.40;1.30;;;;;;;30.47;25.28;100045.48;106118;1253;69079;-76
2023/06/03 11:27:33;;;;;;;2.20;1.30;;;;;;;30.91;24.96;100043.64;106009;1259;71471;-76
2023/06/03 11:30:04;;;;;;;1.60;1.40;;;;;;;31.16;25.12;100041.59;106107;1259;60852;-77
2023/06/03 11:32:35;;;;;;;;;;;;;;;31.37;25.24;100035.75;106266;1254;60442;-77
2023/06/03 11:35:03;;;;;;;2.20;1.40;;;;;;;31.40;24.72;100037.46;106075;1254;73197;-76
2023/06/03 11:37:52;;;;;;;3.10;1.70;;;;;;;31.45;24.87;100036.62;105899;1253;69983;-76